SALOAV 191700Z 33010KT 40KM FEW060CU BKN300CI 28/06
FCLOAV 191125Z 1912/1921 31010KT 9999 FEW050 SCT100 TEMPO 1912/1918 32015G30KT SCT040